sensor_id;sensor_type;location;lat;lon;timestamp;temperature;humidity
11826;DHT22;5970;48.094;11.496;2023-08-01T00:00:46;19.40;94.00
11826;DHT22;5970;48.094;11.496;2023-08-01T00:03:13;19.40;92.90
11826;DHT22;5970;48.094;11.496;2023-08-01T00:05:40;19.40;93.40
11826;DHT22;5970;48.094;11.496;2023-08-01T00:08:11;19.40;93.80
11826;DHT22;5970;48.094;11.496;2023-08-01T00:10:41;19.30;92.50
11826;DHT22;5970;48.094;11.496;2023-08-01T00:13:08;19.40;92.50
11826;DHT22;5970;48.094;11.496;2023-08-01T00:15:35;19.40;93.10
11826;DHT22;5970;48.094;11.496;2023-08-01T00:18:01;19.40;93.20
11826;DHT22;5970;48.094;11.496;2023-08-01T00:20:28;19.40;93.70
11826;DHT22;5970;48.094;11.496;2023-08-01T00:22:55;19.50;93.60
11826;DHT22;5970;48.094;11.496;2023-08-01T00:25:21;19.40;93.00
11826;DHT22;5970;48.094;11.496;2023-08-01T00:27:48;19.40;93.30
11826;DHT22;5970;48.094;11.496;2023-08-01T00:30:15;19.40;93.40
11826;DHT22;5970;48.094;11.496;2023-08-01T00:32:41;19.40;93.60
11826;DHT22;5970;48.094;11.496;2023-08-01T00:35:08;19.40;93.00
11826;DHT22;5970;48.094;11.496;2023-08-01T00:37:35;19.40;93.60
11826;DHT22;5970;48.094;11.496;2023-08-01T00:40:02;19.40;93.90
11826;DHT22;5970;48.094;11.496;2023-08-01T00:42:28;19.40;93.80
11826;DHT22;5970;48.094;11.496;2023-08-01T00:44:55;19.40;93.50
11826;DHT22;5970;48.094;11.496;2023-08-01T00:47:22;19.30;93.00
11826;DHT22;5970;48.094;11.496;2023-08-01T00:49:48;19.30;92.80
11826;DHT22;5970;48.094;11.496;2023-08-01T00:52:15;19.20;93.00
11826;DHT22;5970;48.094;11.496;2023-08-01T00:54:42;19.30;93.30
11826;DHT22;5970;48.094;11.496;2023-08-01T00:57:08;19.30;93.30
11826;DHT22;5970;48.094;11.496;2023-08-01T00:59:36;19.20;93.20
11826;DHT22;5970;48.094;11.496;2023-08-01T01:02:03;19.20;93.30
11826;DHT22;5970;48.094;11.496;2023-08-01T01:04:29;19.20;93.30
11826;DHT22;5970;48.094;11.496;2023-08-01T01:07:03;19.20;93.40
11826;DHT22;5970;48.094;11.496;2023-08-01T01:09:30;19.10;93.30
11826;DHT22;5970;48.094;11.496;2023-08-01T01:12:00;19.00;93.20
11826;DHT22;5970;48.094;11.496;2023-08-01T01:14:27;19.10;93.60
11826;DHT22;5970;48.094;11.496;2023-08-01T01:16:54;19.10;93.60
11826;DHT22;5970;48.094;11.496;2023-08-01T01:19:21;19.30;93.60
11826;DHT22;5970;48.094;11.496;2023-08-01T01:21:47;19.20;93.50
11826;DHT22;5970;48.094;11.496;2023-08-01T01:24:14;19.20;93.80
11826;DHT22;5970;48.094;11.496;2023-08-01T01:26:42;19.30;94.10
11826;DHT22;5970;48.094;11.496;2023-08-01T01:29:09;19.30;94.60
11826;DHT22;5970;48.094;11.496;2023-08-01T01:31:36;19.30;93.90
11826;DHT22;5970;48.094;11.496;2023-08-01T01:34:03;19.30;94.00
11826;DHT22;5970;48.094;11.496;2023-08-01T01:36:30;19.30;94.00
11826;DHT22;5970;48.094;11.496;2023-08-01T01:38:57;19.40;94.10
11826;DHT22;5970;48.094;11.496;2023-08-01T01:41:23;19.30;94.10
11826;DHT22;5970;48.094;11.496;2023-08-01T01:43:50;19.30;93.70
11826;DHT22;5970;48.094;11.496;2023-08-01T01:46:17;19.30;93.80
11826;DHT22;5970;48.094;11.496;2023-08-01T01:48:44;19.40;94.00
11826;DHT22;5970;48.094;11.496;2023-08-01T01:51:10;19.40;93.90
11826;DHT22;5970;48.094;11.496;2023-08-01T01:53:37;19.40;93.70
11826;DHT22;5970;48.094;11.496;2023-08-01T01:56:03;19.40;94.20
11826;DHT22;5970;48.094;11.496;2023-08-01T01:58:30;19.40;94.40
11826;DHT22;5970;48.094;11.496;2023-08-01T02:00:57;19.30;94.60
11826;DHT22;5970;48.094;11.496;2023-08-01T02:03:24;19.40;96.00
11826;DHT22;5970;48.094;11.496;2023-08-01T02:05:50;19.40;96.50
11826;DHT22;5970;48.094;11.496;2023-08-01T02:08:17;19.30;96.90
11826;DHT22;5970;48.094;11.496;2023-08-01T02:10:43;18.20;96.60
11826;DHT22;5970;48.094;11.496;2023-08-01T02:13:10;19.20;97.80
11826;DHT22;5970;48.094;11.496;2023-08-01T02:15:37;19.20;97.80
11826;DHT22;5970;48.094;11.496;2023-08-01T02:18:04;19.10;98.20
11826;DHT22;5970;48.094;11.496;2023-08-01T02:20:30;19.10;98.80
11826;DHT22;5970;48.094;11.496;2023-08-01T02:22:57;19.10;98.60
11826;DHT22;5970;48.094;11.496;2023-08-01T02:25:24;19.10;98.80
11826;DHT22;5970;48.094;11.496;2023-08-01T02:27:51;19.10;99.20
11826;DHT22;5970;48.094;11.496;2023-08-01T02:30:17;19.10;99.20
11826;DHT22;5970;48.094;11.496;2023-08-01T02:32:44;19.10;99.50
11826;DHT22;5970;48.094;11.496;2023-08-01T02:35:11;19.00;99.50
11826;DHT22;5970;48.094;11.496;2023-08-01T02:37:38;19.00;99.40
11826;DHT22;5970;48.094;11.496;2023-08-01T02:40:05;19.00;99.00
11826;DHT22;5970;48.094;11.496;2023-08-01T02:42:34;19.00;99.10
11826;DHT22;5970;48.094;11.496;2023-08-01T02:45:01;18.90;98.80
11826;DHT22;5970;48.094;11.496;2023-08-01T02:47:27;19.00;99.00
11826;DHT22;5970;48.094;11.496;2023-08-01T02:49:54;19.00;99.10
11826;DHT22;5970;48.094;11.496;2023-08-01T02:52:21;18.90;99.40
11826;DHT22;5970;48.094;11.496;2023-08-01T02:54:47;19.00;99.60
11826;DHT22;5970;48.094;11.496;2023-08-01T02:57:14;18.90;99.70
11826;DHT22;5970;48.094;11.496;2023-08-01T02:59:40;18.90;99.70
11826;DHT22;5970;48.094;11.496;2023-08-01T03:02:07;18.80;99.80
11826;DHT22;5970;48.094;11.496;2023-08-01T03:04:34;18.80;99.90
11826;DHT22;5970;48.094;11.496;2023-08-01T03:07:12;18.80;99.90
11826;DHT22;5970;48.094;11.496;2023-08-01T03:09:39;18.70;99.90
11826;DHT22;5970;48.094;11.496;2023-08-01T03:12:06;18.70;99.90
11826;DHT22;5970;48.094;11.496;2023-08-01T03:14:32;18.70;99.90
11826;DHT22;5970;48.094;11.496;2023-08-01T03:16:59;18.70;99.90
11826;DHT22;5970;48.094;11.496;2023-08-01T03:19:26;18.80;99.90
11826;DHT22;5970;48.094;11.496;2023-08-01T03:21:52;18.70;99.90
11826;DHT22;5970;48.094;11.496;2023-08-01T03:24:19;18.70;99.90
11826;DHT22;5970;48.094;11.496;2023-08-01T03:26:45;18.70;99.90
11826;DHT22;5970;48.094;11.496;2023-08-01T03:29:12;18.70;99.90
11826;DHT22;5970;48.094;11.496;2023-08-01T03:31:39;18.70;99.90
11826;DHT22;5970;48.094;11.496;2023-08-01T03:34:06;18.60;99.90
11826;DHT22;5970;48.094;11.496;2023-08-01T03:36:35;18.60;99.90
11826;DHT22;5970;48.094;11.496;2023-08-01T03:39:02;18.60;99.90
11826;DHT22;5970;48.094;11.496;2023-08-01T03:41:31;18.60;99.90
11826;DHT22;5970;48.094;11.496;2023-08-01T03:43:58;18.60;99.90
11826;DHT22;5970;48.094;11.496;2023-08-01T03:46:24;18.60;99.90
11826;DHT22;5970;48.094;11.496;2023-08-01T03:48:51;18.60;99.90
11826;DHT22;5970;48.094;11.496;2023-08-01T03:51:18;18.50;99.90
11826;DHT22;5970;48.094;11.496;2023-08-01T03:53:46;18.50;99.90
11826;DHT22;5970;48.094;11.496;2023-08-01T03:56:21;18.50;99.90
11826;DHT22;5970;48.094;11.496;2023-08-01T03:58:48;18.50;99.90
11826;DHT22;5970;48.094;11.496;2023-08-01T04:01:15;18.50;99.90
11826;DHT22;5970;48.094;11.496;2023-08-01T04:03:41;18.50;99.90
11826;DHT22;5970;48.094;11.496;2023-08-01T04:06:08;18.50;99.90
11826;DHT22;5970;48.094;11.496;2023-08-01T04:08:35;18.50;99.90
11826;DHT22;5970;48.094;11.496;2023-08-01T04:11:01;18.50;99.90
11826;DHT22;5970;48.094;11.496;2023-08-01T04:13:28;18.60;99.90
11826;DHT22;5970;48.094;11.496;2023-08-01T04:15:55;18.40;99.90
11826;DHT22;5970;48.094;11.496;2023-08-01T04:18:21;18.50;99.90
11826;DHT22;5970;48.094;11.496;2023-08-01T04:20:48;18.50;99.90
11826;DHT22;5970;48.094;11.496;2023-08-01T04:23:15;18.40;99.90
11826;DHT22;5970;48.094;11.496;2023-08-01T04:25:41;18.40;99.90
11826;DHT22;5970;48.094;11.496;2023-08-01T04:28:08;18.20;99.90
11826;DHT22;5970;48.094;11.496;2023-08-01T04:30:35;18.20;99.90
11826;DHT22;5970;48.094;11.496;2023-08-01T04:33:04;18.30;99.90
11826;DHT22;5970;48.094;11.496;2023-08-01T04:35:31;18.20;99.90
11826;DHT22;5970;48.094;11.496;2023-08-01T04:37:58;18.20;99.90
11826;DHT22;5970;48.094;11.496;2023-08-01T04:40:25;18.30;99.90
11826;DHT22;5970;48.094;11.496;2023-08-01T04:42:51;18.40;99.90
11826;DHT22;5970;48.094;11.496;2023-08-01T04:45:18;18.30;99.90
11826;DHT22;5970;48.094;11.496;2023-08-01T04:47:45;18.20;99.90
11826;DHT22;5970;48.094;11.496;2023-08-01T04:50:12;18.40;99.90
11826;DHT22;5970;48.094;11.496;2023-08-01T04:52:38;18.30;99.90
11826;DHT22;5970;48.094;11.496;2023-08-01T04:55:05;18.40;99.90
11826;DHT22;5970;48.094;11.496;2023-08-01T04:57:32;18.40;99.90
11826;DHT22;5970;48.094;11.496;2023-08-01T04:59:58;18.40;99.90
11826;DHT22;5970;48.094;11.496;2023-08-01T05:02:26;18.40;99.90
11826;DHT22;5970;48.094;11.496;2023-08-01T05:04:52;18.40;99.90
11826;DHT22;5970;48.094;11.496;2023-08-01T05:07:19;18.30;99.90
11826;DHT22;5970;48.094;11.496;2023-08-01T05:09:46;18.30;99.90
11826;DHT22;5970;48.094;11.496;2023-08-01T05:12:13;18.30;99.90
11826;DHT22;5970;48.094;11.496;2023-08-01T05:14:39;18.30;99.90
11826;DHT22;5970;48.094;11.496;2023-08-01T05:17:06;18.30;99.90
11826;DHT22;5970;48.094;11.496;2023-08-01T05:19:33;18.30;99.90
11826;DHT22;5970;48.094;11.496;2023-08-01T05:21:59;18.10;99.90
11826;DHT22;5970;48.094;11.496;2023-08-01T05:24:26;18.00;99.90
11826;DHT22;5970;48.094;11.496;2023-08-01T05:26:53;17.90;99.90
11826;DHT22;5970;48.094;11.496;2023-08-01T05:29:19;17.80;99.90
11826;DHT22;5970;48.094;11.496;2023-08-01T05:31:46;17.80;99.90
11826;DHT22;5970;48.094;11.496;2023-08-01T05:34:13;17.90;99.90
11826;DHT22;5970;48.094;11.496;2023-08-01T05:36:39;17.80;99.90
11826;DHT22;5970;48.094;11.496;2023-08-01T05:39:07;17.70;99.90
11826;DHT22;5970;48.094;11.496;2023-08-01T05:41:33;17.80;99.90
11826;DHT22;5970;48.094;11.496;2023-08-01T05:44:00;17.80;99.90
11826;DHT22;5970;48.094;11.496;2023-08-01T05:46:27;17.80;99.90
11826;DHT22;5970;48.094;11.496;2023-08-01T05:48:53;17.70;99.90
11826;DHT22;5970;48.094;11.496;2023-08-01T05:51:20;17.60;99.90
11826;DHT22;5970;48.094;11.496;2023-08-01T05:53:47;17.50;99.90
11826;DHT22;5970;48.094;11.496;2023-08-01T05:56:13;18.50;99.90
11826;DHT22;5970;48.094;11.496;2023-08-01T05:58:40;17.30;99.90
11826;DHT22;5970;48.094;11.496;2023-08-01T06:01:07;17.30;99.90
11826;DHT22;5970;48.094;11.496;2023-08-01T06:03:35;17.20;99.90
11826;DHT22;5970;48.094;11.496;2023-08-01T06:06:02;17.30;99.90
11826;DHT22;5970;48.094;11.496;2023-08-01T06:08:29;17.40;99.90
11826;DHT22;5970;48.094;11.496;2023-08-01T06:10:56;17.50;99.90
11826;DHT22;5970;48.094;11.496;2023-08-01T06:13:23;17.40;99.90
11826;DHT22;5970;48.094;11.496;2023-08-01T06:15:49;17.40;99.90
11826;DHT22;5970;48.094;11.496;2023-08-01T06:18:16;17.50;99.90
11826;DHT22;5970;48.094;11.496;2023-08-01T06:20:43;17.60;99.90
11826;DHT22;5970;48.094;11.496;2023-08-01T06:23:09;17.60;99.90
11826;DHT22;5970;48.094;11.496;2023-08-01T06:25:36;17.60;99.90
11826;DHT22;5970;48.094;11.496;2023-08-01T06:28:03;17.80;99.90
11826;DHT22;5970;48.094;11.496;2023-08-01T06:30:29;17.80;99.90
11826;DHT22;5970;48.094;11.496;2023-08-01T06:32:56;17.80;99.90
11826;DHT22;5970;48.094;11.496;2023-08-01T06:35:23;17.90;99.90
11826;DHT22;5970;48.094;11.496;2023-08-01T06:37:50;18.00;99.90
11826;DHT22;5970;48.094;11.496;2023-08-01T06:40:16;18.00;99.90
11826;DHT22;5970;48.094;11.496;2023-08-01T06:42:43;18.10;99.90
11826;DHT22;5970;48.094;11.496;2023-08-01T06:45:10;18.10;99.90
11826;DHT22;5970;48.094;11.496;2023-08-01T06:47:36;18.20;99.90
11826;DHT22;5970;48.094;11.496;2023-08-01T06:50:03;18.20;99.90
11826;DHT22;5970;48.094;11.496;2023-08-01T06:52:31;18.10;99.90
11826;DHT22;5970;48.094;11.496;2023-08-01T06:54:58;18.20;99.90
11826;DHT22;5970;48.094;11.496;2023-08-01T06:57:24;18.20;99.90
11826;DHT22;5970;48.094;11.496;2023-08-01T06:59:51;18.10;99.90
11826;DHT22;5970;48.094;11.496;2023-08-01T07:02:17;18.20;99.90
11826;DHT22;5970;48.094;11.496;2023-08-01T07:04:44;18.10;99.90
11826;DHT22;5970;48.094;11.496;2023-08-01T07:07:11;18.20;99.90
11826;DHT22;5970;48.094;11.496;2023-08-01T07:09:37;18.20;99.90
11826;DHT22;5970;48.094;11.496;2023-08-01T07:12:04;18.20;99.90
11826;DHT22;5970;48.094;11.496;2023-08-01T07:14:31;18.20;99.90
11826;DHT22;5970;48.094;11.496;2023-08-01T07:16:58;18.30;99.90
11826;DHT22;5970;48.094;11.496;2023-08-01T07:19:24;18.40;99.90
11826;DHT22;5970;48.094;11.496;2023-08-01T07:21:51;18.40;99.90
11826;DHT22;5970;48.094;11.496;2023-08-01T07:24:18;18.40;99.90
11826;DHT22;5970;48.094;11.496;2023-08-01T07:26:45;18.40;99.90
11826;DHT22;5970;48.094;11.496;2023-08-01T07:29:11;18.50;99.90
11826;DHT22;5970;48.094;11.496;2023-08-01T07:31:42;18.60;99.90
11826;DHT22;5970;48.094;11.496;2023-08-01T07:34:12;18.60;99.30
11826;DHT22;5970;48.094;11.496;2023-08-01T07:36:39;18.70;99.60
11826;DHT22;5970;48.094;11.496;2023-08-01T07:39:06;18.70;99.40
11826;DHT22;5970;48.094;11.496;2023-08-01T07:41:32;18.60;99.50
11826;DHT22;5970;48.094;11.496;2023-08-01T07:44:01;18.80;99.40
11826;DHT22;5970;48.094;11.496;2023-08-01T07:46:28;18.80;98.60
11826;DHT22;5970;48.094;11.496;2023-08-01T07:48:54;18.90;98.80
11826;DHT22;5970;48.094;11.496;2023-08-01T07:51:21;18.90;98.40
11826;DHT22;5970;48.094;11.496;2023-08-01T07:53:47;19.00;98.20
11826;DHT22;5970;48.094;11.496;2023-08-01T07:56:14;19.10;99.50
11826;DHT22;5970;48.094;11.496;2023-08-01T07:58:41;18.90;99.80
11826;DHT22;5970;48.094;11.496;2023-08-01T08:01:08;18.60;99.90
11826;DHT22;5970;48.094;11.496;2023-08-01T08:03:34;18.60;99.90
11826;DHT22;5970;48.094;11.496;2023-08-01T08:06:01;18.50;99.90
11826;DHT22;5970;48.094;11.496;2023-08-01T08:08:30;18.40;99.90
11826;DHT22;5970;48.094;11.496;2023-08-01T08:10:56;18.30;99.90
11826;DHT22;5970;48.094;11.496;2023-08-01T08:13:23;18.20;99.90
11826;DHT22;5970;48.094;11.496;2023-08-01T08:15:50;18.40;99.90
11826;DHT22;5970;48.094;11.496;2023-08-01T08:18:17;18.40;99.90
11826;DHT22;5970;48.094;11.496;2023-08-01T08:20:46;18.80;99.90
11826;DHT22;5970;48.094;11.496;2023-08-01T08:23:13;19.00;99.90
11826;DHT22;5970;48.094;11.496;2023-08-01T08:25:43;19.30;99.90
11826;DHT22;5970;48.094;11.496;2023-08-01T08:28:13;19.50;99.90
11826;DHT22;5970;48.094;11.496;2023-08-01T08:30:40;19.80;99.90
11826;DHT22;5970;48.094;11.496;2023-08-01T08:33:07;20.10;99.90
11826;DHT22;5970;48.094;11.496;2023-08-01T08:35:36;20.30;99.90
11826;DHT22;5970;48.094;11.496;2023-08-01T08:38:03;20.60;99.90
11826;DHT22;5970;48.094;11.496;2023-08-01T08:40:33;21.00;99.50
11826;DHT22;5970;48.094;11.496;2023-08-01T08:43:01;21.10;98.20
11826;DHT22;5970;48.094;11.496;2023-08-01T08:45:27;20.80;98.40
11826;DHT22;5970;48.094;11.496;2023-08-01T08:47:55;20.70;98.40
11826;DHT22;5970;48.094;11.496;2023-08-01T08:50:26;20.80;99.10
11826;DHT22;5970;48.094;11.496;2023-08-01T08:52:54;20.60;98.40
11826;DHT22;5970;48.094;11.496;2023-08-01T08:55:21;20.40;98.30
11826;DHT22;5970;48.094;11.496;2023-08-01T08:57:51;20.60;98.80
11826;DHT22;5970;48.094;11.496;2023-08-01T09:00:19;20.70;98.10
11826;DHT22;5970;48.094;11.496;2023-08-01T09:02:47;22.60;99.10
11826;DHT22;5970;48.094;11.496;2023-08-01T09:05:14;20.50;97.90
11826;DHT22;5970;48.094;11.496;2023-08-01T09:07:41;20.40;98.10
11826;DHT22;5970;48.094;11.496;2023-08-01T09:10:08;20.30;98.40
11826;DHT22;5970;48.094;11.496;2023-08-01T09:12:36;20.10;98.60
11826;DHT22;5970;48.094;11.496;2023-08-01T09:15:03;20.10;98.80
11826;DHT22;5970;48.094;11.496;2023-08-01T09:17:29;20.20;99.40
11826;DHT22;5970;48.094;11.496;2023-08-01T09:20:05;20.10;99.00
11826;DHT22;5970;48.094;11.496;2023-08-01T09:22:45;20.20;98.80
11826;DHT22;5970;48.094;11.496;2023-08-01T09:25:12;20.40;98.90
11826;DHT22;5970;48.094;11.496;2023-08-01T09:27:39;20.50;98.50
11826;DHT22;5970;48.094;11.496;2023-08-01T09:30:07;20.60;98.10
11826;DHT22;5970;48.094;11.496;2023-08-01T09:32:34;20.60;98.20
11826;DHT22;5970;48.094;11.496;2023-08-01T09:35:01;20.70;98.40
11826;DHT22;5970;48.094;11.496;2023-08-01T09:37:37;20.70;98.50
11826;DHT22;5970;48.094;11.496;2023-08-01T09:40:03;20.70;99.10
11826;DHT22;5970;48.094;11.496;2023-08-01T09:42:37;20.50;99.00
11826;DHT22;5970;48.094;11.496;2023-08-01T09:45:06;20.20;98.40
11826;DHT22;5970;48.094;11.496;2023-08-01T09:47:36;20.10;98.40
11826;DHT22;5970;48.094;11.496;2023-08-01T09:50:03;20.00;98.30
11826;DHT22;5970;48.094;11.496;2023-08-01T09:52:30;20.10;98.80
11826;DHT22;5970;48.094;11.496;2023-08-01T09:54:57;20.20;98.00
11826;DHT22;5970;48.094;11.496;2023-08-01T09:57:23;20.10;97.80
11826;DHT22;5970;48.094;11.496;2023-08-01T09:59:51;20.00;97.40
11826;DHT22;5970;48.094;11.496;2023-08-01T10:02:18;19.90;97.60
11826;DHT22;5970;48.094;11.496;2023-08-01T10:04:46;20.00;97.20
11826;DHT22;5970;48.094;11.496;2023-08-01T10:07:14;19.90;98.40
11826;DHT22;5970;48.094;11.496;2023-08-01T10:09:41;19.80;98.40
11826;DHT22;5970;48.094;11.496;2023-08-01T10:12:08;19.60;98.00
11826;DHT22;5970;48.094;11.496;2023-08-01T10:14:35;19.70;98.50
11826;DHT22;5970;48.094;11.496;2023-08-01T10:17:02;19.60;97.50
11826;DHT22;5970;48.094;11.496;2023-08-01T10:19:30;19.70;98.20
11826;DHT22;5970;48.094;11.496;2023-08-01T10:21:57;19.70;97.70
11826;DHT22;5970;48.094;11.496;2023-08-01T10:24:25;19.70;97.10
11826;DHT22;5970;48.094;11.496;2023-08-01T10:26:52;19.90;98.00
11826;DHT22;5970;48.094;11.496;2023-08-01T10:29:18;19.80;97.10
11826;DHT22;5970;48.094;11.496;2023-08-01T10:31:52;20.00;97.70
11826;DHT22;5970;48.094;11.496;2023-08-01T10:34:19;20.10;97.60
11826;DHT22;5970;48.094;11.496;2023-08-01T10:36:56;20.10;97.20
11826;DHT22;5970;48.094;11.496;2023-08-01T10:39:23;20.30;97.60
11826;DHT22;5970;48.094;11.496;2023-08-01T10:42:23;20.20;97.30
11826;DHT22;5970;48.094;11.496;2023-08-01T10:44:46;20.10;97.60
11826;DHT22;5970;48.094;11.496;2023-08-01T10:47:12;19.70;97.90
11826;DHT22;5970;48.094;11.496;2023-08-01T10:54:41;19.00;99.80
11826;DHT22;5970;48.094;11.496;2023-08-01T10:57:08;18.80;99.90
11826;DHT22;5970;48.094;11.496;2023-08-01T10:59:35;19.00;99.90
11826;DHT22;5970;48.094;11.496;2023-08-01T11:02:01;19.00;99.90
11826;DHT22;5970;48.094;11.496;2023-08-01T11:04:28;18.90;99.90
11826;DHT22;5970;48.094;11.496;2023-08-01T11:06:55;18.90;99.90
11826;DHT22;5970;48.094;11.496;2023-08-01T11:09:23;18.90;99.90
11826;DHT22;5970;48.094;11.496;2023-08-01T11:11:51;18.50;99.90
11826;DHT22;5970;48.094;11.496;2023-08-01T11:14:19;18.60;99.90
11826;DHT22;5970;48.094;11.496;2023-08-01T11:16:46;18.20;99.90
11826;DHT22;5970;48.094;11.496;2023-08-01T11:19:23;18.10;99.90
11826;DHT22;5970;48.094;11.496;2023-08-01T11:21:50;18.10;99.90
11826;DHT22;5970;48.094;11.496;2023-08-01T11:24:18;18.10;99.90
11826;DHT22;5970;48.094;11.496;2023-08-01T11:26:46;17.90;99.90
11826;DHT22;5970;48.094;11.496;2023-08-01T11:29:13;17.90;99.90
11826;DHT22;5970;48.094;11.496;2023-08-01T11:31:40;18.10;99.90
11826;DHT22;5970;48.094;11.496;2023-08-01T11:34:07;18.00;99.90
11826;DHT22;5970;48.094;11.496;2023-08-01T11:36:36;18.10;99.90
11826;DHT22;5970;48.094;11.496;2023-08-01T11:39:03;18.00;99.90
11826;DHT22;5970;48.094;11.496;2023-08-01T11:41:31;17.90;99.90
11826;DHT22;5970;48.094;11.496;2023-08-01T11:44:01;18.00;99.90
11826;DHT22;5970;48.094;11.496;2023-08-01T11:46:32;18.10;99.90
11826;DHT22;5970;48.094;11.496;2023-08-01T11:48:59;18.00;99.90
11826;DHT22;5970;48.094;11.496;2023-08-01T11:51:27;18.10;99.90
11826;DHT22;5970;48.094;11.496;2023-08-01T11:53:58;18.30;99.90
11826;DHT22;5970;48.094;11.496;2023-08-01T11:56:24;18.30;99.90
11826;DHT22;5970;48.094;11.496;2023-08-01T11:58:51;18.40;99.90
11826;DHT22;5970;48.094;11.496;2023-08-01T12:01:18;18.70;99.90
11826;DHT22;5970;48.094;11.496;2023-08-01T12:03:52;18.80;99.90
11826;DHT22;5970;48.094;11.496;2023-08-01T12:06:20;18.90;99.90
11826;DHT22;5970;48.094;11.496;2023-08-01T12:08:49;18.90;99.90
11826;DHT22;5970;48.094;11.496;2023-08-01T12:11:25;18.80;99.90
11826;DHT22;5970;48.094;11.496;2023-08-01T12:14:14;18.90;99.90
11826;DHT22;5970;48.094;11.496;2023-08-01T12:16:42;19.20;99.90
11826;DHT22;5970;48.094;11.496;2023-08-01T12:19:16;19.30;99.90
11826;DHT22;5970;48.094;11.496;2023-08-01T12:21:43;19.50;99.90
11826;DHT22;5970;48.094;11.496;2023-08-01T12:24:10;20.00;99.90
11826;DHT22;5970;48.094;11.496;2023-08-01T12:26:37;20.10;99.90
11826;DHT22;5970;48.094;11.496;2023-08-01T12:29:04;20.00;99.90
11826;DHT22;5970;48.094;11.496;2023-08-01T12:31:30;20.10;99.90
11826;DHT22;5970;48.094;11.496;2023-08-01T12:33:57;19.90;99.90
11826;DHT22;5970;48.094;11.496;2023-08-01T12:36:24;19.70;99.90
11826;DHT22;5970;48.094;11.496;2023-08-01T12:38:50;19.70;99.90
11826;DHT22;5970;48.094;11.496;2023-08-01T12:41:17;20.00;99.90
11826;DHT22;5970;48.094;11.496;2023-08-01T12:43:44;20.30;99.90
11826;DHT22;5970;48.094;11.496;2023-08-01T12:46:10;20.80;99.90
11826;DHT22;5970;48.094;11.496;2023-08-01T12:48:37;21.10;99.90
11826;DHT22;5970;48.094;11.496;2023-08-01T12:51:04;21.00;99.90
11826;DHT22;5970;48.094;11.496;2023-08-01T12:53:30;20.80;99.90
11826;DHT22;5970;48.094;11.496;2023-08-01T12:55:57;20.60;99.90
11826;DHT22;5970;48.094;11.496;2023-08-01T12:58:24;20.40;99.90
11826;DHT22;5970;48.094;11.496;2023-08-01T13:00:50;20.20;99.90
11826;DHT22;5970;48.094;11.496;2023-08-01T13:03:17;20.30;99.90
11826;DHT22;5970;48.094;11.496;2023-08-01T13:05:44;20.70;99.90
11826;DHT22;5970;48.094;11.496;2023-08-01T13:08:10;20.60;99.90
11826;DHT22;5970;48.094;11.496;2023-08-01T13:10:38;20.40;99.90
11826;DHT22;5970;48.094;11.496;2023-08-01T13:13:05;20.10;99.90
11826;DHT22;5970;48.094;11.496;2023-08-01T13:15:31;20.20;99.90
11826;DHT22;5970;48.094;11.496;2023-08-01T13:17:58;19.90;99.90
11826;DHT22;5970;48.094;11.496;2023-08-01T13:20:25;20.00;99.90
11826;DHT22;5970;48.094;11.496;2023-08-01T13:22:55;20.00;99.90
11826;DHT22;5970;48.094;11.496;2023-08-01T13:25:22;20.00;99.90
11826;DHT22;5970;48.094;11.496;2023-08-01T13:27:49;20.00;99.90
11826;DHT22;5970;48.094;11.496;2023-08-01T13:30:15;20.30;99.90
11826;DHT22;5970;48.094;11.496;2023-08-01T13:32:44;20.70;99.90
11826;DHT22;5970;48.094;11.496;2023-08-01T13:35:14;21.00;99.90
11826;DHT22;5970;48.094;11.496;2023-08-01T13:37:41;21.30;99.90
11826;DHT22;5970;48.094;11.496;2023-08-01T13:40:08;21.90;99.60
11826;DHT22;5970;48.094;11.496;2023-08-01T13:42:35;22.60;99.40
11826;DHT22;5970;48.094;11.496;2023-08-01T13:45:02;23.10;97.90
11826;DHT22;5970;48.094;11.496;2023-08-01T13:47:28;23.00;98.00
11826;DHT22;5970;48.094;11.496;2023-08-01T13:49:56;22.60;97.80
11826;DHT22;5970;48.094;11.496;2023-08-01T13:52:23;22.70;97.20
11826;DHT22;5970;48.094;11.496;2023-08-01T13:54:50;23.10;96.90
11826;DHT22;5970;48.094;11.496;2023-08-01T13:57:17;23.70;97.60
11826;DHT22;5970;48.094;11.496;2023-08-01T13:59:44;25.00;95.60
11826;DHT22;5970;48.094;11.496;2023-08-01T14:02:20;25.40;94.00
11826;DHT22;5970;48.094;11.496;2023-08-01T14:04:50;26.00;93.40
11826;DHT22;5970;48.094;11.496;2023-08-01T14:07:17;25.90;91.90
11826;DHT22;5970;48.094;11.496;2023-08-01T14:09:43;26.00;91.90
11826;DHT22;5970;48.094;11.496;2023-08-01T14:12:10;25.80;91.50
11826;DHT22;5970;48.094;11.496;2023-08-01T14:14:37;24.90;91.50
11826;DHT22;5970;48.094;11.496;2023-08-01T14:17:03;24.30;92.50
11826;DHT22;5970;48.094;11.496;2023-08-01T14:19:30;24.00;93.70
11826;DHT22;5970;48.094;11.496;2023-08-01T14:21:57;23.50;93.80
11826;DHT22;5970;48.094;11.496;2023-08-01T14:24:24;23.00;94.00
11826;DHT22;5970;48.094;11.496;2023-08-01T14:26:51;22.90;94.50
11826;DHT22;5970;48.094;11.496;2023-08-01T14:29:18;22.70;94.60
11826;DHT22;5970;48.094;11.496;2023-08-01T14:31:49;22.60;95.00
11826;DHT22;5970;48.094;11.496;2023-08-01T14:34:16;22.00;95.30
11826;DHT22;5970;48.094;11.496;2023-08-01T14:36:43;22.00;95.40
11826;DHT22;5970;48.094;11.496;2023-08-01T14:39:10;22.00;95.70
11826;DHT22;5970;48.094;11.496;2023-08-01T14:41:48;21.60;95.40
11826;DHT22;5970;48.094;11.496;2023-08-01T14:44:31;21.40;95.30
11826;DHT22;5970;48.094;11.496;2023-08-01T14:46:57;21.40;95.50
11826;DHT22;5970;48.094;11.496;2023-08-01T14:49:24;21.70;96.30
11826;DHT22;5970;48.094;11.496;2023-08-01T14:51:54;21.80;95.20
11826;DHT22;5970;48.094;11.496;2023-08-01T14:54:20;22.70;93.70
11826;DHT22;5970;48.094;11.496;2023-08-01T14:57:06;23.10;93.60
11826;DHT22;5970;48.094;11.496;2023-08-01T14:59:32;23.10;93.10
11826;DHT22;5970;48.094;11.496;2023-08-01T15:01:59;22.30;93.30
11826;DHT22;5970;48.094;11.496;2023-08-01T15:04:26;21.80;93.60
11826;DHT22;5970;48.094;11.496;2023-08-01T15:06:53;21.30;94.30
11826;DHT22;5970;48.094;11.496;2023-08-01T15:09:20;21.00;94.50
11826;DHT22;5970;48.094;11.496;2023-08-01T15:11:47;20.90;95.80
11826;DHT22;5970;48.094;11.496;2023-08-01T15:14:14;20.10;97.70
11826;DHT22;5970;48.094;11.496;2023-08-01T15:16:40;19.30;99.90
11826;DHT22;5970;48.094;11.496;2023-08-01T15:19:08;18.80;99.90
11826;DHT22;5970;48.094;11.496;2023-08-01T15:21:34;18.30;99.90
11826;DHT22;5970;48.094;11.496;2023-08-01T15:24:01;18.10;99.90
11826;DHT22;5970;48.094;11.496;2023-08-01T15:26:27;17.70;99.90
11826;DHT22;5970;48.094;11.496;2023-08-01T15:28:54;17.20;99.90
11826;DHT22;5970;48.094;11.496;2023-08-01T15:31:21;16.80;99.90
11826;DHT22;5970;48.094;11.496;2023-08-01T15:33:48;16.80;99.90
11826;DHT22;5970;48.094;11.496;2023-08-01T15:36:14;16.60;99.90